Terminal Aerodrome Forecast
Issued by NWS

Home | Current Version | Previous Version | Text Only | Print | Product List | Glossary On
Versions: 1 2 3 4 5 6 7 8 9 10 11 12 13 14 15 16 17 18
019
FTUS46 KMTR 140529
TAFSNS
TAF
KSNS 140529Z 1406/1506 28007KT 6SM BR FEW250
     FM141700 28009KT P6SM SKC
     FM142000 29011G16KT P6SM SKC
     FM150300 29011KT P6SM SKC=

USA.gov is the U.S. government's official web portal to all federal, state and local government web resources and services.